Terminal Aerodrome Forecast
Issued by NWS

Home | Current Version | Previous Version | Text Only | Print | Product List | Glossary On
Versions: 1 2 3 4 5 6 7 8 9 10 11 12 13 14 15 16 17 18 19
000
FTUS42 KFFC 030540
TAFPDK
TAF
KPDK 030540Z 0306/0406 00000KT P6SM OVC020
     FM030900 00000KT 6SM -DZ BR OVC008
     FM031000 09006KT 4SM -DZ BR BKN004 OVC008
      TEMPO 0311/0315 2SM RA BR
     FM031500 11007KT 5SM -DZ BR OVC008
     FM032200 10007KT P6SM OVC010
     FM040100 09007KT P6SM OVC008=

USA.gov is the U.S. government's official web portal to all federal, state and local government web resources and services.